Vera Cruz, Brazil
Current Conditions -  °F | °C
As of 8:00 AM on Friday 19 Dec 2014 (Local Time) from SBSV Reporting Station
Broken Clouds Broken Clouds  
Wind Chill: 79°   Ceiling: 1700
Heat Index: 82°   Visibility: 6mi
Dew Point: 73°   Wind: 13mph
Humidity: 83%   Direction: 20°NNE
Pressure: 29.88"   Gusts: NA
Location:  12.96°S, 38.61°W
Report Text: SBSV 191100Z 02011KT 9999 SCT010 BKN017 FEW020TCU BKN070 26/23 Q1012
Loading
Personal Weather Stations






























Interactive Weather Map New forecast layout! Learn more

10-Day Weather Forecast

Advertisements
Track Severe Weather on mobile